Time;durP1;ratioP1;P1;durP2;ratioP2;P2;SDS_P1;SDS_P2;PMS_P1;PMS_P2;Temp;Humidity;BMP_temperature;BMP_pressure;BME280_temperature;BME280_humidity;BME280_pressure;Samples;Min_cycle;Max_cycle;Signal;HPM_P1;HPM_P2
2022/09/06 04:16:40;;;;;;;9.70;4.50;;;;;;;16.79;100.00;100278.66;5387952;23;20584;-64
2022/09/06 04:19:06;;;;;;;7.53;4.53;;;;;;;16.79;100.00;100288.59;5011522;28;20041;-63
2022/09/06 04:21:31;;;;;;;8.43;4.78;;;;;;;16.85;100.00;100286.91;5012367;28;20037;-63
2022/09/06 04:23:56;;;;;;;5.78;3.80;;;;;;;16.83;100.00;100289.00;5012790;28;20729;-62
2022/09/06 04:26:22;;;;;;;8.65;4.65;;;;;;;16.81;100.00;100289.19;5002582;28;20088;-63
2022/09/06 04:28:47;;;;;;;9.75;4.72;;;;;;;16.73;100.00;100298.31;4992210;28;20046;-64
2022/09/06 04:31:13;;;;;;;11.27;5.47;;;;;;;16.68;100.00;100298.09;4992544;28;20038;-64
2022/09/06 04:33:39;;;;;;;8.55;5.03;;;;;;;16.72;100.00;100298.53;4992935;28;20160;-64
2022/09/06 04:36:09;;;;;;;9.75;4.30;;;;;;;16.70;100.00;100295.25;4992769;28;20116;-64
2022/09/06 04:38:41;;;;;;;9.15;5.20;;;;;;;16.72;100.00;100285.09;4992948;28;20041;-63
2022/09/06 04:41:11;;;;;;;10.63;5.25;;;;;;;16.79;100.00;100278.66;4992617;28;20544;-63
2022/09/06 04:43:37;;;;;;;9.48;4.07;;;;;;;16.81;100.00;100283.81;4992909;28;20042;-63
2022/09/06 04:46:05;;;;;;;6.95;4.55;;;;;;;16.78;100.00;100282.38;4992664;28;20085;-63
2022/09/06 04:48:30;;;;;;;9.57;5.03;;;;;;;16.76;100.00;100289.03;4992581;28;20456;-63
2022/09/06 04:50:56;;;;;;;9.45;4.13;;;;;;;16.79;100.00;100283.19;4991064;28;20056;-62
2022/09/06 04:53:21;;;;;;;7.13;4.38;;;;;;;16.75;100.00;100273.91;4992592;28;20054;-62
2022/09/06 04:55:47;;;;;;;8.57;4.20;;;;;;;16.79;100.00;100291.28;4992607;28;20038;-63
2022/09/06 04:58:12;;;;;;;13.18;4.57;;;;;;;16.70;100.00;100284.50;4992439;28;20053;-65
2022/09/06 05:00:38;;;;;;;5.80;3.90;;;;;;;16.75;100.00;100292.72;4992307;28;20074;-63
2022/09/06 05:03:04;;;;;;;11.35;4.63;;;;;;;16.71;100.00;100291.50;4992339;28;20053;-63
2022/09/06 05:05:29;;;;;;;9.95;4.70;;;;;;;16.62;100.00;100288.19;4992398;28;20050;-63
2022/09/06 05:07:55;;;;;;;7.75;4.22;;;;;;;16.64;100.00;100288.00;4992136;28;20100;-62
2022/09/06 05:10:22;;;;;;;9.52;5.10;;;;;;;16.67;100.00;100284.88;4992063;28;20061;-63
2022/09/06 05:12:48;;;;;;;10.60;5.20;;;;;;;16.62;100.00;100274.75;4992454;28;20054;-62
2022/09/06 05:15:15;;;;;;;7.93;4.80;;;;;;;16.60;100.00;100281.38;4992058;28;20047;-63
2022/09/06 05:17:41;;;;;;;9.75;5.00;;;;;;;16.64;100.00;100280.75;4992284;28;20062;-64
2022/09/06 05:20:07;;;;;;;8.88;4.55;;;;;;;16.69;100.00;100282.78;4992194;28;20493;-65
2022/09/06 05:22:32;;;;;;;10.93;4.70;;;;;;;16.67;100.00;100283.00;4992193;28;20121;-65
2022/09/06 05:24:57;;;;;;;9.73;5.05;;;;;;;16.67;100.00;100290.25;4974954;28;20129;-65
2022/09/06 05:27:23;;;;;;;8.23;4.82;;;;;;;16.66;100.00;100289.44;4992073;28;20042;-64
2022/09/06 05:29:48;;;;;;;6.93;4.57;;;;;;;16.69;100.00;100290.84;4992273;28;20077;-65
2022/09/06 05:32:14;;;;;;;8.52;4.38;;;;;;;16.72;100.00;100301.22;4991798;28;20132;-64
2022/09/06 05:34:39;;;;;;;9.45;4.57;;;;;;;16.77;100.00;100298.75;4992126;28;20078;-65
2022/09/06 05:37:04;;;;;;;7.57;4.38;;;;;;;16.79;100.00;100302.84;4992062;28;20486;-64
2022/09/06 05:39:30;;;;;;;9.45;4.95;;;;;;;16.82;100.00;100298.91;4992064;28;20046;-65
2022/09/06 05:41:55;;;;;;;7.93;4.93;;;;;;;16.83;100.00;100305.97;4990560;28;20030;-64
2022/09/06 05:44:21;;;;;;;13.55;5.28;;;;;;;16.87;100.00;100309.84;4974521;28;20048;-64
2022/09/06 05:46:46;;;;;;;10.18;5.57;;;;;;;16.91;100.00;100310.28;4978501;28;20049;-65
2022/09/06 05:49:12;;;;;;;9.77;4.50;;;;;;;16.90;100.00;100300.56;4972552;28;20433;-64
2022/09/06 05:51:41;;;;;;;11.45;5.35;;;;;;;17.00;100.00;100317.06;4972244;28;20034;-64
2022/09/06 05:54:09;;;;;;;9.93;5.28;;;;;;;17.00;100.00;100311.69;4972652;28;20047;-64
2022/09/06 05:56:34;;;;;;;9.00;4.43;;;;;;;17.03;100.00;100316.66;4972504;28;20097;-65
2022/09/06 05:59:00;;;;;;;7.85;4.50;;;;;;;17.04;100.00;100324.50;4972377;28;20438;-64
2022/09/06 06:01:27;;;;;;;7.18;4.20;;;;;;;17.07;100.00;100324.06;4972041;28;20031;-64
2022/09/06 06:03:56;;;;;;;14.88;4.95;;;;;;;17.08;100.00;100322.19;4972388;28;20566;-64
2022/09/06 06:06:23;;;;;;;10.15;5.22;;;;;;;17.11;100.00;100321.78;4972324;28;20578;-65
2022/09/06 06:08:48;;;;;;;10.15;4.95;;;;;;;17.14;100.00;100329.41;4972413;28;20127;-64
2022/09/06 06:11:14;;;;;;;13.40;5.43;;;;;;;17.22;100.00;100331.88;4972053;28;20042;-62
2022/09/06 06:13:40;;;;;;;9.32;4.82;;;;;;;17.23;100.00;100322.75;4972352;28;20476;-64
2022/09/06 06:16:07;;;;;;;7.85;5.00;;;;;;;17.34;100.00;100329.31;4970784;28;20104;-64
2022/09/06 06:18:32;;;;;;;8.82;4.78;;;;;;;17.43;100.00;100329.91;4972451;28;20074;-64
2022/09/06 06:21:07;;;;;;;12.23;5.38;;;;;;;17.53;100.00;100338.31;4975826;28;20112;-64
2022/09/06 06:23:32;;;;;;;12.70;6.20;;;;;;;17.60;100.00;100337.25;4976012;28;20608;-64
2022/09/06 06:25:58;;;;;;;10.68;5.75;;;;;;;17.67;100.00;100339.91;4975950;28;20125;-64
2022/09/06 06:28:23;;;;;;;11.65;5.68;;;;;;;17.76;100.00;100329.72;4975889;28;20129;-64
2022/09/06 06:30:49;;;;;;;9.48;5.47;;;;;;;17.83;100.00;100333.19;4975437;28;20113;-64
2022/09/06 06:33:14;;;;;;;11.00;5.57;;;;;;;17.92;100.00;100339.94;4975913;28;20042;-63
2022/09/06 06:35:39;;;;;;;7.68;4.90;;;;;;;17.98;100.00;100327.47;4975698;28;20043;-64
2022/09/06 06:38:05;;;;;;;9.40;5.57;;;;;;;18.08;100.00;100334.03;4974597;28;20031;-64
2022/09/06 06:40:30;;;;;;;13.45;5.55;;;;;;;18.15;100.00;100342.88;4975405;28;20064;-64
2022/09/06 06:42:56;;;;;;;10.05;5.32;;;;;;;18.25;100.00;100346.94;4975612;28;20177;-64
2022/09/06 06:45:21;;;;;;;8.65;5.55;;;;;;;18.29;100.00;100353.56;4975531;28;20049;-64
2022/09/06 06:47:49;;;;;;;8.30;5.22;;;;;;;18.37;100.00;100345.16;4975600;28;20046;-65
2022/09/06 06:50:15;;;;;;;7.38;4.60;;;;;;;18.50;100.00;100345.03;4975225;28;20110;-65
2022/09/06 06:52:41;;;;;;;10.23;4.78;;;;;;;18.56;100.00;100341.47;4975501;28;20043;-65
2022/09/06 06:55:07;;;;;;;11.60;5.43;;;;;;;18.64;100.00;100341.16;4975436;28;20118;-63
2022/09/06 06:57:32;;;;;;;14.90;5.88;;;;;;;18.75;100.00;100353.13;4975282;28;20038;-63
2022/09/06 06:59:58;;;;;;;8.68;5.30;;;;;;;18.83;100.00;100344.72;4975155;28;20042;-64
2022/09/06 07:02:23;;;;;;;13.98;5.20;;;;;;;18.97;100.00;100348.94;4975193;28;20557;-65
2022/09/06 07:04:48;;;;;;;10.63;5.60;;;;;;;19.09;100.00;100338.19;4975255;28;20089;-64
2022/09/06 07:07:15;;;;;;;14.13;5.82;;;;;;;19.20;100.00;100334.72;4975215;28;20035;-64
2022/09/06 07:09:40;;;;;;;10.93;5.72;;;;;;;19.30;100.00;100327.94;4975169;28;20050;-65
2022/09/06 07:12:06;;;;;;;11.90;5.68;;;;;;;19.41;100.00;100324.47;4974767;28;20043;-65
2022/09/06 07:14:31;;;;;;;13.98;5.50;;;;;;;19.56;100.00;100326.75;4974881;28;20126;-64
2022/09/06 07:16:58;;;;;;;17.42;5.75;;;;;;;19.74;100.00;100326.72;4974889;28;20046;-64
2022/09/06 07:19:24;;;;;;;11.02;5.93;;;;;;;19.83;100.00;100321.84;4974969;28;20057;-64
2022/09/06 07:21:50;;;;;;;7.43;4.85;;;;;;;19.96;100.00;100322.44;4974619;28;20039;-65
2022/09/06 07:24:15;;;;;;;10.98;4.88;;;;;;;20.10;100.00;100322.22;4974832;28;20062;-64
2022/09/06 07:26:40;;;;;;;8.77;4.50;;;;;;;20.23;100.00;100327.41;4974653;28;20054;-65
2022/09/06 07:29:07;;;;;;;7.32;4.82;;;;;;;20.38;100.00;100341.28;4973401;28;20043;-65
2022/09/06 07:31:33;;;;;;;9.40;4.90;;;;;;;20.51;100.00;100335.66;4973854;28;20038;-65
2022/09/06 07:33:58;;;;;;;8.90;4.88;;;;;;;20.61;97.41;100332.38;4974558;28;20434;-65
2022/09/06 07:36:24;;;;;;;11.38;5.50;;;;;;;20.73;94.51;100322.31;4973172;28;20053;-65
2022/09/06 07:38:50;;;;;;;9.07;4.88;;;;;;;20.79;93.70;100320.53;4974534;28;20074;-63
2022/09/06 07:41:17;;;;;;;8.70;5.03;;;;;;;20.86;92.42;100316.66;4974088;28;20094;-64
2022/09/06 07:43:43;;;;;;;10.23;5.32;;;;;;;20.94;93.02;100320.88;4974351;28;20039;-65
2022/09/06 07:46:11;;;;;;;9.77;5.05;;;;;;;20.99;93.21;100322.84;4974388;28;20114;-65
2022/09/06 07:48:38;;;;;;;9.90;5.72;;;;;;;21.06;93.69;100321.69;4974390;28;20031;-65
2022/09/06 07:51:06;;;;;;;9.38;5.13;;;;;;;21.13;93.30;100332.38;4973916;28;20031;-65
2022/09/06 07:53:32;;;;;;;8.65;5.10;;;;;;;21.20;92.18;100322.22;4974336;28;20078;-65
2022/09/06 07:56:04;;;;;;;12.32;5.72;;;;;;;21.25;92.34;100319.59;4974257;28;20034;-65
2022/09/06 07:58:30;;;;;;;7.93;4.85;;;;;;;21.33;93.76;100330.09;4974123;28;20096;-65
2022/09/06 08:01:16;;;;;;;8.95;4.63;;;;;;;21.45;93.27;100337.31;4972689;28;20109;-65
2022/09/06 08:03:42;;;;;;;9.55;4.95;;;;;;;21.58;94.14;100345.16;4974126;28;20046;-65
2022/09/06 08:06:08;;;;;;;7.32;4.80;;;;;;;21.60;90.82;100341.16;4973425;28;20058;-65
2022/09/06 08:08:34;;;;;;;8.75;5.00;;;;;;;21.72;88.11;100338.38;4974089;28;20039;-65
2022/09/06 08:10:59;;;;;;;9.07;5.05;;;;;;;21.62;88.08;100330.88;4973737;28;20398;-65
2022/09/06 08:13:25;;;;;;;8.07;5.10;;;;;;;21.70;88.53;100334.25;4973953;28;20048;-65
2022/09/06 08:16:00;;;;;;;8.55;4.95;;;;;;;21.65;89.01;100335.00;4973844;28;20134;-65
2022/09/06 08:18:26;;;;;;;6.88;4.82;;;;;;;21.74;89.00;100336.25;4973925;28;20132;-65
2022/09/06 08:20:51;;;;;;;8.52;4.75;;;;;;;21.73;89.46;100331.91;4973771;28;20494;-65
2022/09/06 08:23:17;;;;;;;7.43;4.40;;;;;;;21.81;88.59;100325.25;4973745;28;20054;-65
2022/09/06 08:25:42;;;;;;;9.32;4.38;;;;;;;21.86;89.42;100326.16;4973626;28;20038;-66
2022/09/06 08:28:08;;;;;;;9.43;4.60;;;;;;;21.97;88.10;100329.03;4973620;28;20042;-65
2022/09/06 08:30:34;;;;;;;9.13;4.70;;;;;;;22.00;89.09;100325.84;4973141;28;20125;-65
2022/09/06 08:33:00;;;;;;;6.93;4.85;;;;;;;22.04;88.59;100332.38;4973683;28;20051;-65
2022/09/06 08:35:25;;;;;;;8.38;4.88;;;;;;;22.09;88.28;100330.63;4973558;28;20039;-66
2022/09/06 08:37:51;;;;;;;6.20;4.22;;;;;;;22.14;87.42;100328.00;4973352;28;20068;-65
2022/09/06 08:40:20;;;;;;;6.70;4.80;;;;;;;22.17;86.50;100327.50;4973187;28;20039;-65
2022/09/06 08:42:46;;;;;;;6.75;4.25;;;;;;;22.24;86.90;100326.53;4972679;28;20046;-65
2022/09/06 08:45:18;;;;;;;7.88;4.18;;;;;;;22.24;86.09;100327.34;4973442;28;20150;-65
2022/09/06 08:47:44;;;;;;;6.35;4.00;;;;;;;22.20;86.90;100331.59;4973455;28;20066;-65
2022/09/06 08:50:10;;;;;;;6.78;3.85;;;;;;;22.26;87.74;100335.22;4972990;28;20061;-65
2022/09/06 08:52:39;;;;;;;7.75;4.55;;;;;;;22.38;87.00;100344.09;4973414;28;20066;-65
2022/09/06 08:55:31;;;;;;;7.57;4.50;;;;;;;22.46;86.45;100349.09;4973254;28;20026;-65
2022/09/06 08:58:18;;;;;;;6.80;4.60;;;;;;;22.51;86.95;100345.66;4973132;28;20081;-65
2022/09/06 09:00:52;;;;;;;7.25;5.05;;;;;;;22.57;85.90;100340.03;4972743;28;20059;-65
2022/09/06 09:03:21;;;;;;;8.68;4.40;;;;;;;22.62;85.23;100333.84;4973026;28;20035;-65
2022/09/06 09:05:50;;;;;;;6.38;4.28;;;;;;;22.79;85.48;100334.63;4972992;28;20054;-65
2022/09/06 09:08:22;;;;;;;10.20;4.00;;;;;;;22.84;83.00;100331.16;4972990;28;20038;-65
2022/09/06 09:10:59;;;;;;;6.53;4.68;;;;;;;23.09;84.50;100341.56;4972611;28;20042;-65
2022/09/06 09:13:38;;;;;;;;;;;;;;;23.27;80.86;100349.34;4973396;28;20051;-65
2022/09/06 09:16:05;;;;;;;12.75;4.20;;;;;;;23.24;80.33;100353.41;4972627;28;19920;-65
2022/09/06 09:18:34;;;;;;;5.85;3.85;;;;;;;23.31;80.02;100346.97;4972750;28;20026;-65
2022/09/06 09:21:00;;;;;;;7.20;4.80;;;;;;;23.24;81.10;100339.00;4972405;28;20043;-65
2022/09/06 09:23:28;;;;;;;8.55;4.63;;;;;;;23.38;80.27;100340.25;4972171;28;20062;-65
2022/09/06 09:25:57;;;;;;;6.55;4.30;;;;;;;23.63;78.81;100338.91;4972535;28;20057;-65
2022/09/06 09:28:23;;;;;;;7.28;4.38;;;;;;;23.90;77.34;100345.13;4971330;28;20034;-65
2022/09/06 09:30:54;;;;;;;6.95;4.78;;;;;;;23.92;78.82;100342.16;4972307;28;20644;-65
2022/09/06 09:33:34;;;;;;;6.10;4.05;;;;;;;24.19;82.83;100331.22;4972736;28;20057;-65
2022/09/06 09:36:20;;;;;;;5.70;3.83;;;;;;;24.53;75.43;100331.75;4972548;28;20114;-65
2022/09/06 09:38:50;;;;;;;6.55;3.97;;;;;;;24.75;76.10;100337.06;4971279;28;20093;-65
2022/09/06 09:41:31;;;;;;;8.35;3.90;;;;;;;24.94;76.01;100318.34;4972261;28;20054;-65
2022/09/06 09:44:00;;;;;;;8.27;3.40;;;;;;;25.26;73.02;100327.19;4971416;28;20046;-65
2022/09/06 09:46:26;;;;;;;5.25;3.70;;;;;;;25.64;73.18;100317.75;4972488;28;20049;-65
2022/09/06 09:49:09;;;;;;;6.60;3.63;;;;;;;26.02;72.49;100323.78;4972370;28;20042;-65
2022/09/06 09:51:38;;;;;;;6.65;3.78;;;;;;;26.13;67.83;100328.13;4972166;28;20039;-65
2022/09/06 09:54:10;;;;;;;7.50;3.45;;;;;;;26.18;66.94;100328.13;4975057;28;20035;-65
2022/09/06 09:56:51;;;;;;;6.63;3.67;;;;;;;26.45;64.07;100327.84;4976281;28;20054;-65
2022/09/06 09:59:22;;;;;;;5.32;3.58;;;;;;;26.55;64.89;100331.66;4976414;28;20086;-64
2022/09/06 10:01:48;;;;;;;5.05;3.60;;;;;;;26.57;63.72;100324.00;4976109;28;20039;-65
2022/09/06 10:04:23;;;;;;;4.53;3.28;;;;;;;26.71;65.43;100325.03;4975083;28;20037;-65
2022/09/06 10:06:48;;;;;;;5.60;3.42;;;;;;;26.95;63.85;100327.97;4976282;28;20041;-65
2022/09/06 10:09:18;;;;;;;3.67;3.00;;;;;;;27.30;62.75;100322.34;4976182;28;20405;-65
2022/09/06 10:11:53;;;;;;;4.35;3.08;;;;;;;27.66;62.45;100311.19;4975651;28;20038;-65
2022/09/06 10:14:30;;;;;;;4.22;2.88;;;;;;;28.00;62.13;100315.88;4976198;28;20180;-65
2022/09/06 10:16:57;;;;;;;5.30;3.25;;;;;;;27.99;62.39;100311.50;4975791;28;20046;-65
2022/09/06 10:19:41;;;;;;;5.88;3.30;;;;;;;28.20;59.28;100301.16;4976088;28;20035;-65
2022/09/06 10:22:45;;;;;;;3.85;2.80;;;;;;;28.18;62.10;100298.72;4975578;28;20041;-65
2022/09/06 10:25:43;;;;;;;7.32;2.95;;;;;;;28.31;59.29;100300.81;4945397;28;20053;-65
2022/09/06 10:28:23;;;;;;;4.55;3.40;;;;;;;28.61;58.52;100293.34;4975878;28;20043;-65
2022/09/06 10:31:11;;;;;;;3.92;3.13;;;;;;;28.71;60.48;100293.25;4975757;28;20401;-64
2022/09/06 10:33:49;;;;;;;3.38;3.08;;;;;;;28.81;62.05;100284.88;4975859;28;20490;-63
2022/09/06 10:36:21;;;;;;;3.90;2.80;;;;;;;29.30;56.32;100282.91;4975513;28;20045;-64
2022/09/06 10:38:52;;;;;;;4.70;2.80;;;;;;;29.82;55.30;100289.25;4975615;28;20035;-65
2022/09/06 10:41:40;;;;;;;5.43;3.40;;;;;;;30.11;56.75;100286.28;4973931;28;20035;-63
2022/09/06 10:44:44;;;;;;;4.88;2.22;;;;;;;30.48;52.85;100279.81;4975597;28;20034;-62
2022/09/06 10:47:14;;;;;;;3.70;2.80;;;;;;;30.67;49.71;100275.06;4975289;28;20062;-63
2022/09/06 10:49:44;;;;;;;3.92;2.42;;;;;;;30.97;49.25;100279.13;4958268;28;20065;-64
2022/09/06 10:52:15;;;;;;;6.30;2.65;;;;;;;30.86;48.67;100285.13;4974943;28;20047;-63
2022/09/06 10:54:41;;;;;;;2.75;2.13;;;;;;;30.86;49.46;100269.44;4975158;28;20414;-64
2022/09/06 10:57:28;;;;;;;3.47;2.20;;;;;;;31.31;48.35;100269.56;4973982;28;20042;-63
2022/09/06 11:00:11;;;;;;;3.03;2.22;;;;;;;31.83;48.29;100276.31;4975165;28;20037;-64
2022/09/06 11:02:59;;;;;;;5.18;2.60;;;;;;;31.43;46.98;100272.59;4975217;28;20038;-64
2022/09/06 11:05:29;;;;;;;3.33;2.00;;;;;;;31.94;44.79;100273.28;4974222;28;20113;-63
2022/09/06 11:08:16;;;;;;;3.28;2.15;;;;;;;32.48;43.86;100269.34;4975075;28;20050;-64
2022/09/06 11:10:44;;;;;;;4.43;2.20;;;;;;;32.20;44.90;100278.91;4974635;28;20039;-64
2022/09/06 11:13:19;;;;;;;3.28;2.20;;;;;;;32.03;43.55;100268.63;4988895;28;20501;-64
2022/09/06 11:16:01;;;;;;;2.33;2.03;;;;;;;32.61;44.83;100273.94;4994283;28;20042;-63
2022/09/06 11:18:35;;;;;;;3.20;2.00;;;;;;;32.44;42.60;100273.88;4994249;28;20049;-62
2022/09/06 11:21:34;;;;;;;4.13;2.15;;;;;;;33.40;41.89;100261.13;4993654;28;20045;-64
2022/09/06 11:24:08;;;;;;;3.80;1.90;;;;;;;33.31;42.53;100258.31;4976624;28;20042;-64
2022/09/06 11:27:10;;;;;;;2.92;1.80;;;;;;;33.60;41.04;100260.44;4993586;28;20037;-64
2022/09/06 11:29:40;;;;;;;4.53;1.90;;;;;;;33.53;40.01;100254.59;4994322;28;20405;-65
2022/09/06 11:32:25;;;;;;;2.92;1.85;;;;;;;34.05;39.10;100254.53;4993756;28;20109;-64
2022/09/06 11:34:53;;;;;;;2.67;1.60;;;;;;;33.95;40.84;100254.88;4993786;28;20054;-63
2022/09/06 11:37:35;;;;;;;4.93;1.90;;;;;;;33.84;40.97;100246.06;4993798;28;20042;-63
2022/09/06 11:40:23;;;;;;;3.53;1.58;;;;;;;33.38;41.25;100244.00;4993661;28;20034;-64
2022/09/06 11:42:48;;;;;;;2.85;1.45;;;;;;;33.37;41.26;100243.22;4993919;28;20383;-64
2022/09/06 11:45:21;;;;;;;2.67;1.30;;;;;;;33.37;39.39;100247.91;4993809;28;20098;-66
2022/09/06 11:47:49;;;;;;;1.85;1.20;;;;;;;33.34;38.44;100243.06;4994066;28;20382;-64
2022/09/06 11:50:20;;;;;;;2.55;1.40;;;;;;;33.38;37.20;100224.69;4993261;28;20046;-64
2022/09/06 11:53:06;;;;;;;1.98;1.30;;;;;;;33.98;38.32;100234.88;4976136;28;20129;-64
2022/09/06 11:55:37;;;;;;;2.15;1.45;;;;;;;33.91;37.97;100229.88;4993680;28;20140;-65
2022/09/06 11:58:21;;;;;;;3.08;1.30;;;;;;;34.26;36.12;100213.94;4986329;28;20401;-64
2022/09/06 12:01:12;;;;;;;2.38;1.80;;;;;;;34.14;37.08;100216.59;4973968;28;20066;-64
2022/09/06 12:03:47;;;;;;;2.45;1.13;;;;;;;34.22;36.12;100209.41;4974001;28;20047;-66
2022/09/06 12:06:19;;;;;;;2.03;1.13;;;;;;;34.26;36.62;100204.84;4972678;28;20038;-64
2022/09/06 12:08:47;;;;;;;1.83;1.05;;;;;;;34.69;35.07;100203.78;4974177;28;20038;-65
2022/09/06 12:11:43;;;;;;;0.90;0.90;;;;;;;35.10;35.01;100199.47;4972247;28;20054;-65
2022/09/06 12:14:18;;;;;;;2.45;1.40;;;;;;;34.77;35.26;100198.22;4973790;28;20046;-64
2022/09/06 12:16:59;;;;;;;1.80;1.35;;;;;;;35.28;35.64;100198.16;4973603;28;20049;-64
2022/09/06 12:19:47;;;;;;;3.15;1.50;;;;;;;35.52;35.49;100189.94;4973764;28;20042;-65
2022/09/06 12:22:40;;;;;;;1.70;1.10;;;;;;;36.24;35.11;100195.16;4973456;28;20089;-65
2022/09/06 12:25:34;;;;;;;1.73;1.10;;;;;;;36.23;33.84;100199.09;4973696;28;20072;-65
2022/09/06 12:28:03;;;;;;;2.22;1.10;;;;;;;35.91;34.35;100195.25;4971003;28;20039;-64
2022/09/06 12:30:40;;;;;;;4.18;1.35;;;;;;;36.11;32.86;100189.59;4973297;28;20192;-65
2022/09/06 12:33:30;;;;;;;2.60;1.20;;;;;;;35.12;35.70;100192.44;4973582;28;20122;-64
2022/09/06 12:36:18;;;;;;;2.22;1.30;;;;;;;35.22;35.92;100192.03;4973541;28;20043;-64
2022/09/06 12:39:12;;;;;;;1.67;1.23;;;;;;;33.98;37.89;100190.69;4973585;28;20034;-64
2022/09/06 12:41:42;;;;;;;1.38;1.25;;;;;;;33.57;37.45;100183.78;4960499;28;20046;-63
2022/09/06 12:44:08;;;;;;;3.10;1.35;;;;;;;34.19;37.12;100190.75;4973438;28;20557;-64
2022/09/06 12:46:35;;;;;;;3.40;1.70;;;;;;;34.40;36.72;100188.03;4973395;28;20050;-65
2022/09/06 12:49:11;;;;;;;2.67;1.15;;;;;;;34.74;35.09;100176.75;4973312;28;20705;-63
2022/09/06 12:51:38;;;;;;;4.18;1.30;;;;;;;34.69;34.83;100179.75;4973002;28;20062;-64
2022/09/06 12:54:25;;;;;;;1.80;1.20;;;;;;;35.16;35.49;100174.00;4973206;28;20117;-63
2022/09/06 12:56:51;;;;;;;2.60;1.45;;;;;;;35.38;33.94;100161.72;4973096;28;20496;-64
2022/09/06 12:59:25;;;;;;;1.42;0.98;;;;;;;35.31;34.70;100164.25;4971917;28;20043;-64
2022/09/06 13:02:15;;;;;;;2.35;1.17;;;;;;;35.64;33.30;100167.03;4972879;28;20065;-67
2022/09/06 13:04:52;;;;;;;2.25;1.20;;;;;;;35.85;32.88;100164.97;4973166;28;20038;-64
2022/09/06 13:07:21;;;;;;;2.15;1.05;;;;;;;35.30;32.93;100151.56;4973213;28;20041;-65
2022/09/06 13:09:51;;;;;;;2.15;1.30;;;;;;;35.73;32.11;100156.63;4971831;28;20537;-64
2022/09/06 13:12:21;;;;;;;1.42;1.27;;;;;;;35.13;32.85;100149.75;4972645;28;20621;-64
2022/09/06 13:14:52;;;;;;;2.50;1.17;;;;;;;35.66;32.80;100153.63;4972838;28;20410;-64
2022/09/06 13:17:29;;;;;;;2.95;1.02;;;;;;;35.51;33.17;100154.31;4972669;28;20038;-67
2022/09/06 13:19:56;;;;;;;1.80;1.10;;;;;;;35.75;32.96;100153.53;4972967;28;20182;-66
2022/09/06 13:22:44;;;;;;;3.28;1.23;;;;;;;35.99;32.75;100152.75;4972642;28;20533;-65
2022/09/06 13:25:19;;;;;;;2.35;1.40;;;;;;;36.36;31.71;100146.06;4972688;28;20441;-65
2022/09/06 13:27:49;;;;;;;2.08;1.25;;;;;;;35.67;32.35;100144.19;4972368;28;20031;-64
2022/09/06 13:30:40;;;;;;;2.70;1.30;;;;;;;35.33;33.03;100137.03;4972352;28;20053;-65
2022/09/06 13:33:19;;;;;;;2.25;1.20;;;;;;;35.35;34.01;100146.63;4972694;28;20049;-66
2022/09/06 13:35:50;;;;;;;3.25;1.92;;;;;;;35.02;34.01;100138.31;4972511;28;20047;-67
2022/09/06 13:38:37;;;;;;;4.50;1.50;;;;;;;35.29;34.38;100144.41;4972599;28;20038;-67
2022/09/06 13:41:26;;;;;;;2.47;1.30;;;;;;;35.92;33.68;100144.22;4955727;28;20492;-67
2022/09/06 13:44:15;;;;;;;2.15;1.25;;;;;;;35.83;31.64;100144.31;4972530;28;20039;-67
2022/09/06 13:46:41;;;;;;;1.67;1.02;;;;;;;35.64;31.77;100142.09;4972579;28;20474;-67
2022/09/06 13:49:06;;;;;;;1.50;1.00;;;;;;;34.83;32.42;100134.41;4972511;28;20158;-67
2022/09/06 13:51:33;;;;;;;1.77;1.00;;;;;;;34.42;33.39;100131.28;4971149;28;20031;-65
2022/09/06 13:54:10;;;;;;;1.60;1.23;;;;;;;34.23;33.50;100122.59;4972499;28;20169;-67
2022/09/06 13:56:38;;;;;;;1.52;1.17;;;;;;;33.66;35.53;100126.59;4972313;28;20043;-67
2022/09/06 13:59:05;;;;;;;2.67;0.90;;;;;;;33.36;36.74;100111.06;4972587;28;20042;-68
2022/09/06 14:01:32;;;;;;;2.05;1.30;;;;;;;32.69;36.17;100101.38;4970846;28;20451;-66
2022/09/06 14:03:58;;;;;;;;;;;;;;;32.56;37.76;100091.34;4972855;28;20542;-65
2022/09/06 14:06:23;;;;;;;1.90;1.15;;;;;;;32.12;37.82;100094.00;4972244;28;19914;-67
2022/09/06 14:08:49;;;;;;;2.33;1.00;;;;;;;31.88;37.92;100101.84;4972482;28;20494;-67
2022/09/06 14:11:15;;;;;;;1.27;0.80;;;;;;;31.70;37.56;100100.16;4970443;28;20061;-67
2022/09/06 14:13:40;;;;;;;2.00;1.40;;;;;;;31.72;39.93;100095.94;4971388;28;20431;-67
2022/09/06 14:16:06;;;;;;;1.83;1.13;;;;;;;31.46;38.91;100093.06;4972167;28;20051;-67
2022/09/06 14:18:31;;;;;;;1.63;1.17;;;;;;;31.27;38.53;100086.97;4972358;28;20039;-67
2022/09/06 14:20:57;;;;;;;1.83;1.20;;;;;;;31.23;38.18;100088.69;4972060;28;20106;-66
2022/09/06 14:23:24;;;;;;;1.75;1.17;;;;;;;31.12;38.61;100092.84;4971068;28;20402;-66
2022/09/06 14:26:00;;;;;;;;;;;;;;;31.17;39.52;100087.19;4972645;28;20047;-67
2022/09/06 14:28:26;;;;;;;1.02;0.70;;;;;;;31.17;38.11;100085.28;4972520;28;19914;-67
2022/09/06 14:30:52;;;;;;;1.73;1.02;;;;;;;31.12;38.72;100087.34;4971926;28;20070;-67
2022/09/06 14:33:18;;;;;;;0.90;0.90;;;;;;;30.91;39.57;100090.63;4971123;28;20113;-67
2022/09/06 14:35:44;;;;;;;1.38;0.80;;;;;;;30.79;37.94;100088.41;4971041;28;20082;-67
2022/09/06 14:38:10;;;;;;;1.10;0.98;;;;;;;30.88;39.95;100095.91;4970806;28;20130;-67
2022/09/06 14:40:37;;;;;;;1.67;1.33;;;;;;;30.86;39.95;100092.66;4973450;28;20046;-67
2022/09/06 14:43:03;;;;;;;0.95;0.85;;;;;;;30.97;39.60;100094.88;4975608;28;20038;-66
2022/09/06 14:45:29;;;;;;;1.30;1.05;;;;;;;30.74;37.43;100087.72;4975555;28;20505;-65
2022/09/06 14:47:55;;;;;;;1.85;1.33;;;;;;;30.64;37.88;100088.72;4975535;28;20047;-65
2022/09/06 14:50:20;;;;;;;1.52;0.90;;;;;;;30.51;37.59;100087.66;4975044;28;20414;-66
2022/09/06 14:52:47;;;;;;;1.10;0.90;;;;;;;30.25;36.98;100081.09;4974223;28;20118;-67
2022/09/06 14:55:12;;;;;;;1.13;1.03;;;;;;;30.16;36.79;100092.00;4975338;28;20039;-66
2022/09/06 14:57:38;;;;;;;3.25;1.08;;;;;;;30.05;36.12;100090.56;4975333;28;20466;-63
2022/09/06 15:00:07;;;;;;;1.23;0.85;;;;;;;30.04;35.99;100096.38;4975138;28;20114;-64
2022/09/06 15:02:33;;;;;;;1.55;1.23;;;;;;;30.03;35.55;100092.81;4975048;28;20039;-64
2022/09/06 15:04:59;;;;;;;0.77;0.60;;;;;;;29.97;35.14;100094.84;4975185;28;20594;-63
2022/09/06 15:07:25;;;;;;;1.38;0.50;;;;;;;29.99;34.06;100092.63;4974885;28;20042;-63
2022/09/06 15:09:51;;;;;;;0.70;0.70;;;;;;;29.97;34.33;100086.59;4973897;28;20118;-63
2022/09/06 15:12:18;;;;;;;1.23;0.82;;;;;;;30.14;33.12;100088.75;4974666;28;20506;-63
2022/09/06 15:14:44;;;;;;;1.08;0.63;;;;;;;30.11;33.23;100074.81;4974957;28;20062;-64
2022/09/06 15:17:10;;;;;;;0.70;0.70;;;;;;;30.26;36.62;100091.00;4974792;28;20042;-64
2022/09/06 15:19:36;;;;;;;1.45;1.00;;;;;;;30.17;39.29;100079.09;4975174;28;20122;-65
2022/09/06 15:22:03;;;;;;;1.25;1.10;;;;;;;29.89;40.42;100079.09;4974572;28;20039;-65
2022/09/06 15:24:29;;;;;;;;;;;;;;;29.94;41.19;100070.75;4975254;28;20553;-64
2022/09/06 15:26:55;;;;;;;1.50;1.00;;;;;;;29.73;41.30;100069.53;4974904;28;19914;-63
2022/09/06 15:29:21;;;;;;;1.60;0.90;;;;;;;29.56;41.92;100067.41;4974852;28;20085;-64
2022/09/06 15:31:51;;;;;;;1.20;1.00;;;;;;;29.66;42.48;100060.88;4974399;28;20043;-64
2022/09/06 15:34:21;;;;;;;1.23;1.00;;;;;;;29.42;41.72;100050.91;4974718;28;20051;-64
2022/09/06 15:36:46;;;;;;;1.95;1.30;;;;;;;29.48;42.32;100045.31;4973296;28;20085;-65
2022/09/06 15:39:13;;;;;;;1.63;1.00;;;;;;;29.55;42.62;100048.50;4974751;28;20506;-64
2022/09/06 15:41:39;;;;;;;1.52;0.95;;;;;;;29.56;41.99;100041.88;4974302;28;20130;-65
2022/09/06 15:44:10;;;;;;;0.82;0.75;;;;;;;29.49;42.02;100039.53;4974570;28;20039;-64
2022/09/06 15:46:45;;;;;;;1.65;0.88;;;;;;;29.31;42.78;100033.00;4974659;28;20147;-63
2022/09/06 15:49:14;;;;;;;1.45;0.80;;;;;;;29.32;42.31;100036.53;4973633;28;20069;-64
2022/09/06 15:51:41;;;;;;;1.67;1.08;;;;;;;29.32;43.04;100037.34;4973869;28;20043;-67
2022/09/06 15:54:07;;;;;;;1.13;1.03;;;;;;;29.33;42.27;100035.44;4973214;28;20039;-64